sensor_id;sensor_type;location;lat;lon;timestamp;P1;durP1;ratioP1;P2;durP2;ratioP2
58756;SDS011;44527;47.460;19.016;2022-09-01T00:02:37;3.58;;;2.03;;
58756;SDS011;44527;47.460;19.016;2022-09-01T00:05:40;3.60;;;1.95;;
58756;SDS011;44527;47.460;19.016;2022-09-01T00:08:42;3.12;;;1.92;;
58756;SDS011;44527;47.460;19.016;2022-09-01T00:11:46;6.22;;;2.10;;
58756;SDS011;44527;47.460;19.016;2022-09-01T00:14:51;3.83;;;1.73;;
58756;SDS011;44527;47.460;19.016;2022-09-01T00:17:54;2.85;;;1.55;;
58756;SDS011;44527;47.460;19.016;2022-09-01T00:20:56;5.22;;;1.83;;
58756;SDS011;44527;47.460;19.016;2022-09-01T00:24:00;4.87;;;1.87;;
58756;SDS011;44527;47.460;19.016;2022-09-01T00:27:03;2.75;;;1.55;;
58756;SDS011;44527;47.460;19.016;2022-09-01T00:30:06;5.90;;;2.17;;
58756;SDS011;44527;47.460;19.016;2022-09-01T00:33:08;8.23;;;2.05;;
58756;SDS011;44527;47.460;19.016;2022-09-01T00:36:11;4.78;;;1.80;;
58756;SDS011;44527;47.460;19.016;2022-09-01T00:39:13;5.45;;;1.95;;
58756;SDS011;44527;47.460;19.016;2022-09-01T00:42:16;6.20;;;1.80;;
58756;SDS011;44527;47.460;19.016;2022-09-01T00:45:18;8.85;;;3.03;;
58756;SDS011;44527;47.460;19.016;2022-09-01T00:48:24;12.77;;;2.47;;
58756;SDS011;44527;47.460;19.016;2022-09-01T00:51:29;10.50;;;3.90;;
58756;SDS011;44527;47.460;19.016;2022-09-01T00:54:35;5.07;;;2.20;;
58756;SDS011;44527;47.460;19.016;2022-09-01T00:57:41;5.20;;;2.17;;
58756;SDS011;44527;47.460;19.016;2022-09-01T01:00:45;2.92;;;1.83;;
58756;SDS011;44527;47.460;19.016;2022-09-01T01:03:50;5.62;;;1.90;;
58756;SDS011;44527;47.460;19.016;2022-09-01T01:06:55;8.38;;;2.00;;
58756;SDS011;44527;47.460;19.016;2022-09-01T01:10:04;4.80;;;2.08;;
58756;SDS011;44527;47.460;19.016;2022-09-01T01:13:09;5.85;;;2.17;;
58756;SDS011;44527;47.460;19.016;2022-09-01T01:16:14;6.68;;;2.55;;
58756;SDS011;44527;47.460;19.016;2022-09-01T01:26:11;5.05;;;2.25;;
58756;SDS011;44527;47.460;19.016;2022-09-01T01:29:14;6.43;;;2.22;;
58756;SDS011;44527;47.460;19.016;2022-09-01T01:32:19;3.85;;;2.30;;
58756;SDS011;44527;47.460;19.016;2022-09-01T01:35:21;3.20;;;1.92;;
58756;SDS011;44527;47.460;19.016;2022-09-01T01:38:27;7.07;;;2.87;;
58756;SDS011;44527;47.460;19.016;2022-09-01T01:41:31;3.67;;;1.90;;
58756;SDS011;44527;47.460;19.016;2022-09-01T01:44:37;3.45;;;1.80;;
58756;SDS011;44527;47.460;19.016;2022-09-01T01:47:40;5.50;;;2.03;;
58756;SDS011;44527;47.460;19.016;2022-09-01T01:50:43;4.55;;;1.70;;
58756;SDS011;44527;47.460;19.016;2022-09-01T01:53:47;7.05;;;1.62;;
58756;SDS011;44527;47.460;19.016;2022-09-01T01:56:54;6.18;;;1.80;;
58756;SDS011;44527;47.460;19.016;2022-09-01T01:59:56;8.27;;;2.45;;
58756;SDS011;44527;47.460;19.016;2022-09-01T02:02:59;3.08;;;2.10;;
58756;SDS011;44527;47.460;19.016;2022-09-01T02:06:01;4.32;;;2.42;;
58756;SDS011;44527;47.460;19.016;2022-09-01T02:09:08;3.55;;;1.73;;
58756;SDS011;44527;47.460;19.016;2022-09-01T02:12:12;6.07;;;1.98;;
58756;SDS011;44527;47.460;19.016;2022-09-01T02:15:17;5.55;;;2.03;;
58756;SDS011;44527;47.460;19.016;2022-09-01T02:18:22;5.05;;;1.75;;
58756;SDS011;44527;47.460;19.016;2022-09-01T02:21:32;4.65;;;2.10;;
58756;SDS011;44527;47.460;19.016;2022-09-01T02:24:34;3.45;;;2.03;;
58756;SDS011;44527;47.460;19.016;2022-09-01T02:27:37;4.10;;;1.70;;
58756;SDS011;44527;47.460;19.016;2022-09-01T02:30:41;10.25;;;2.12;;
58756;SDS011;44527;47.460;19.016;2022-09-01T02:33:46;5.72;;;1.73;;
58756;SDS011;44527;47.460;19.016;2022-09-01T02:36:50;2.47;;;1.30;;
58756;SDS011;44527;47.460;19.016;2022-09-01T02:39:54;5.57;;;1.62;;
58756;SDS011;44527;47.460;19.016;2022-09-01T02:42:59;5.47;;;1.50;;
58756;SDS011;44527;47.460;19.016;2022-09-01T02:46:02;4.25;;;1.52;;
58756;SDS011;44527;47.460;19.016;2022-09-01T02:49:16;6.60;;;1.65;;
58756;SDS011;44527;47.460;19.016;2022-09-01T02:52:22;3.47;;;1.62;;
58756;SDS011;44527;47.460;19.016;2022-09-01T02:55:24;2.35;;;1.52;;
58756;SDS011;44527;47.460;19.016;2022-09-01T02:58:27;5.65;;;2.35;;
58756;SDS011;44527;47.460;19.016;2022-09-01T03:01:31;4.65;;;1.67;;
58756;SDS011;44527;47.460;19.016;2022-09-01T03:04:34;5.10;;;1.70;;
58756;SDS011;44527;47.460;19.016;2022-09-01T03:07:37;7.37;;;2.00;;
58756;SDS011;44527;47.460;19.016;2022-09-01T03:10:43;3.87;;;1.27;;
58756;SDS011;44527;47.460;19.016;2022-09-01T03:13:47;3.05;;;1.40;;
58756;SDS011;44527;47.460;19.016;2022-09-01T03:16:50;2.80;;;1.67;;
58756;SDS011;44527;47.460;19.016;2022-09-01T03:19:52;2.15;;;1.40;;
58756;SDS011;44527;47.460;19.016;2022-09-01T03:22:57;5.47;;;1.12;;
58756;SDS011;44527;47.460;19.016;2022-09-01T03:26:00;5.20;;;1.48;;
58756;SDS011;44527;47.460;19.016;2022-09-01T03:29:02;2.85;;;1.15;;
58756;SDS011;44527;47.460;19.016;2022-09-01T03:32:05;3.15;;;1.45;;
58756;SDS011;44527;47.460;19.016;2022-09-01T03:35:08;5.00;;;1.52;;
58756;SDS011;44527;47.460;19.016;2022-09-01T03:38:11;2.85;;;1.42;;
58756;SDS011;44527;47.460;19.016;2022-09-01T03:41:15;3.80;;;1.40;;
58756;SDS011;44527;47.460;19.016;2022-09-01T03:44:19;2.15;;;1.30;;
58756;SDS011;44527;47.460;19.016;2022-09-01T03:47:22;2.25;;;1.15;;
58756;SDS011;44527;47.460;19.016;2022-09-01T03:50:25;2.37;;;1.10;;
58756;SDS011;44527;47.460;19.016;2022-09-01T03:53:33;2.20;;;1.30;;
58756;SDS011;44527;47.460;19.016;2022-09-01T03:56:41;3.72;;;1.23;;
58756;SDS011;44527;47.460;19.016;2022-09-01T03:59:46;3.42;;;1.48;;
58756;SDS011;44527;47.460;19.016;2022-09-01T04:02:50;2.47;;;1.35;;
58756;SDS011;44527;47.460;19.016;2022-09-01T04:05:59;7.12;;;1.60;;
58756;SDS011;44527;47.460;19.016;2022-09-01T04:09:03;6.68;;;1.50;;
58756;SDS011;44527;47.460;19.016;2022-09-01T04:12:06;3.35;;;1.27;;
58756;SDS011;44527;47.460;19.016;2022-09-01T04:15:12;3.42;;;1.42;;
58756;SDS011;44527;47.460;19.016;2022-09-01T04:18:16;4.57;;;1.73;;
58756;SDS011;44527;47.460;19.016;2022-09-01T04:21:22;3.55;;;1.58;;
58756;SDS011;44527;47.460;19.016;2022-09-01T04:24:25;6.45;;;1.67;;
58756;SDS011;44527;47.460;19.016;2022-09-01T04:27:30;5.30;;;2.03;;
58756;SDS011;44527;47.460;19.016;2022-09-01T04:30:32;7.50;;;1.98;;
58756;SDS011;44527;47.460;19.016;2022-09-01T04:33:38;7.80;;;1.73;;
58756;SDS011;44527;47.460;19.016;2022-09-01T04:36:42;6.80;;;1.62;;
58756;SDS011;44527;47.460;19.016;2022-09-01T04:39:49;4.05;;;2.45;;
58756;SDS011;44527;47.460;19.016;2022-09-01T04:42:58;3.05;;;1.50;;
58756;SDS011;44527;47.460;19.016;2022-09-01T04:46:00;5.32;;;1.70;;
58756;SDS011;44527;47.460;19.016;2022-09-01T04:49:04;3.67;;;1.70;;
58756;SDS011;44527;47.460;19.016;2022-09-01T04:52:14;3.72;;;1.70;;
58756;SDS011;44527;47.460;19.016;2022-09-01T04:55:17;10.07;;;2.12;;
58756;SDS011;44527;47.460;19.016;2022-09-01T04:58:19;6.45;;;1.90;;
58756;SDS011;44527;47.460;19.016;2022-09-01T05:01:24;4.45;;;1.92;;
58756;SDS011;44527;47.460;19.016;2022-09-01T05:04:28;6.15;;;1.80;;
58756;SDS011;44527;47.460;19.016;2022-09-01T05:07:35;5.87;;;1.75;;
58756;SDS011;44527;47.460;19.016;2022-09-01T05:10:42;3.53;;;1.80;;
58756;SDS011;44527;47.460;19.016;2022-09-01T05:13:47;6.10;;;1.98;;
58756;SDS011;44527;47.460;19.016;2022-09-01T05:16:54;6.22;;;2.12;;
58756;SDS011;44527;47.460;19.016;2022-09-01T05:19:59;3.15;;;1.70;;
58756;SDS011;44527;47.460;19.016;2022-09-01T05:23:01;7.03;;;2.08;;
58756;SDS011;44527;47.460;19.016;2022-09-01T05:26:04;10.55;;;2.05;;
58756;SDS011;44527;47.460;19.016;2022-09-01T05:29:20;4.97;;;1.70;;
58756;SDS011;44527;47.460;19.016;2022-09-01T05:32:23;7.43;;;1.67;;
58756;SDS011;44527;47.460;19.016;2022-09-01T05:35:27;13.05;;;2.05;;
58756;SDS011;44527;47.460;19.016;2022-09-01T05:38:34;8.00;;;2.30;;
58756;SDS011;44527;47.460;19.016;2022-09-01T05:41:38;5.70;;;1.50;;
58756;SDS011;44527;47.460;19.016;2022-09-01T05:44:42;2.85;;;1.85;;
58756;SDS011;44527;47.460;19.016;2022-09-01T05:47:46;3.65;;;1.80;;
58756;SDS011;44527;47.460;19.016;2022-09-01T05:50:50;7.47;;;1.73;;
58756;SDS011;44527;47.460;19.016;2022-09-01T05:53:57;3.90;;;1.60;;
58756;SDS011;44527;47.460;19.016;2022-09-01T05:57:03;2.97;;;1.73;;
58756;SDS011;44527;47.460;19.016;2022-09-01T06:00:28;4.62;;;1.80;;
58756;SDS011;44527;47.460;19.016;2022-09-01T06:03:36;3.60;;;1.85;;
58756;SDS011;44527;47.460;19.016;2022-09-01T06:06:42;10.30;;;2.00;;
58756;SDS011;44527;47.460;19.016;2022-09-01T06:10:07;4.97;;;1.62;;
58756;SDS011;44527;47.460;19.016;2022-09-01T06:13:10;3.83;;;1.50;;
58756;SDS011;44527;47.460;19.016;2022-09-01T06:16:17;7.43;;;2.00;;
58756;SDS011;44527;47.460;19.016;2022-09-01T06:19:20;4.43;;;1.75;;
58756;SDS011;44527;47.460;19.016;2022-09-01T06:22:24;8.02;;;1.95;;
58756;SDS011;44527;47.460;19.016;2022-09-01T06:25:28;5.85;;;1.70;;
58756;SDS011;44527;47.460;19.016;2022-09-01T06:28:32;4.18;;;1.67;;
58756;SDS011;44527;47.460;19.016;2022-09-01T06:31:35;5.82;;;2.00;;
58756;SDS011;44527;47.460;19.016;2022-09-01T06:34:41;2.47;;;1.33;;
58756;SDS011;44527;47.460;19.016;2022-09-01T06:37:46;7.47;;;2.03;;
58756;SDS011;44527;47.460;19.016;2022-09-01T06:40:58;4.30;;;2.40;;
58756;SDS011;44527;47.460;19.016;2022-09-01T06:44:01;5.18;;;1.87;;
58756;SDS011;44527;47.460;19.016;2022-09-01T06:47:04;3.90;;;1.80;;
58756;SDS011;44527;47.460;19.016;2022-09-01T06:50:09;2.35;;;1.20;;
58756;SDS011;44527;47.460;19.016;2022-09-01T06:53:36;6.28;;;1.60;;
58756;SDS011;44527;47.460;19.016;2022-09-01T06:56:40;2.90;;;1.48;;
58756;SDS011;44527;47.460;19.016;2022-09-01T06:59:53;3.50;;;1.70;;
58756;SDS011;44527;47.460;19.016;2022-09-01T07:02:55;4.00;;;1.40;;
58756;SDS011;44527;47.460;19.016;2022-09-01T07:06:00;1.98;;;1.27;;
58756;SDS011;44527;47.460;19.016;2022-09-01T07:09:10;2.05;;;1.42;;
58756;SDS011;44527;47.460;19.016;2022-09-01T07:12:24;4.72;;;1.55;;
58756;SDS011;44527;47.460;19.016;2022-09-01T07:15:27;3.25;;;1.60;;
58756;SDS011;44527;47.460;19.016;2022-09-01T07:18:50;4.65;;;1.42;;
58756;SDS011;44527;47.460;19.016;2022-09-01T07:22:00;2.70;;;1.50;;
58756;SDS011;44527;47.460;19.016;2022-09-01T07:25:11;4.90;;;1.40;;
58756;SDS011;44527;47.460;19.016;2022-09-01T07:28:15;3.50;;;1.50;;
58756;SDS011;44527;47.460;19.016;2022-09-01T07:31:21;4.35;;;1.40;;
58756;SDS011;44527;47.460;19.016;2022-09-01T07:34:48;4.32;;;1.52;;
58756;SDS011;44527;47.460;19.016;2022-09-01T07:37:51;3.25;;;1.50;;
58756;SDS011;44527;47.460;19.016;2022-09-01T07:41:14;5.15;;;1.65;;
58756;SDS011;44527;47.460;19.016;2022-09-01T07:44:38;5.87;;;1.52;;
58756;SDS011;44527;47.460;19.016;2022-09-01T07:47:44;3.97;;;1.60;;
58756;SDS011;44527;47.460;19.016;2022-09-01T07:50:55;2.60;;;1.40;;
58756;SDS011;44527;47.460;19.016;2022-09-01T07:54:17;7.22;;;1.55;;
58756;SDS011;44527;47.460;19.016;2022-09-01T07:57:20;8.38;;;1.60;;
58756;SDS011;44527;47.460;19.016;2022-09-01T08:00:24;9.75;;;1.73;;
58756;SDS011;44527;47.460;19.016;2022-09-01T08:03:32;3.62;;;1.30;;
58756;SDS011;44527;47.460;19.016;2022-09-01T08:06:35;2.50;;;1.25;;
58756;SDS011;44527;47.460;19.016;2022-09-01T08:09:41;2.58;;;1.15;;
58756;SDS011;44527;47.460;19.016;2022-09-01T08:12:45;2.62;;;1.20;;
58756;SDS011;44527;47.460;19.016;2022-09-01T08:15:57;2.95;;;1.40;;
58756;SDS011;44527;47.460;19.016;2022-09-01T08:19:09;6.40;;;1.33;;
58756;SDS011;44527;47.460;19.016;2022-09-01T08:22:19;7.18;;;1.33;;
58756;SDS011;44527;47.460;19.016;2022-09-01T08:25:25;4.62;;;1.33;;
58756;SDS011;44527;47.460;19.016;2022-09-01T08:28:28;6.68;;;1.42;;
58756;SDS011;44527;47.460;19.016;2022-09-01T08:31:31;6.60;;;1.30;;
58756;SDS011;44527;47.460;19.016;2022-09-01T08:34:34;2.75;;;1.50;;
58756;SDS011;44527;47.460;19.016;2022-09-01T08:37:38;3.17;;;1.60;;
58756;SDS011;44527;47.460;19.016;2022-09-01T08:40:41;3.95;;;1.60;;
58756;SDS011;44527;47.460;19.016;2022-09-01T08:43:59;5.82;;;1.42;;
58756;SDS011;44527;47.460;19.016;2022-09-01T08:47:11;6.10;;;1.80;;
58756;SDS011;44527;47.460;19.016;2022-09-01T08:50:17;4.25;;;1.50;;
58756;SDS011;44527;47.460;19.016;2022-09-01T08:53:36;6.35;;;1.27;;
58756;SDS011;44527;47.460;19.016;2022-09-01T08:56:47;3.72;;;1.17;;
58756;SDS011;44527;47.460;19.016;2022-09-01T08:59:58;2.70;;;0.98;;
58756;SDS011;44527;47.460;19.016;2022-09-01T09:03:08;2.05;;;0.98;;
58756;SDS011;44527;47.460;19.016;2022-09-01T09:09:32;5.15;;;1.10;;
58756;SDS011;44527;47.460;19.016;2022-09-01T09:16:11;3.80;;;1.30;;
58756;SDS011;44527;47.460;19.016;2022-09-01T09:19:21;3.00;;;1.27;;
58756;SDS011;44527;47.460;19.016;2022-09-01T09:22:28;5.40;;;1.33;;
58756;SDS011;44527;47.460;19.016;2022-09-01T09:25:32;4.00;;;1.10;;
58756;SDS011;44527;47.460;19.016;2022-09-01T09:28:35;2.60;;;1.27;;
58756;SDS011;44527;47.460;19.016;2022-09-01T09:31:39;4.53;;;1.20;;
58756;SDS011;44527;47.460;19.016;2022-09-01T09:34:51;4.55;;;1.17;;
58756;SDS011;44527;47.460;19.016;2022-09-01T09:37:54;1.85;;;0.85;;
58756;SDS011;44527;47.460;19.016;2022-09-01T09:44:25;4.60;;;1.27;;
58756;SDS011;44527;47.460;19.016;2022-09-01T09:47:35;2.97;;;1.10;;
58756;SDS011;44527;47.460;19.016;2022-09-01T09:50:46;4.15;;;1.05;;
58756;SDS011;44527;47.460;19.016;2022-09-01T09:53:50;3.65;;;0.95;;
58756;SDS011;44527;47.460;19.016;2022-09-01T10:03:38;6.45;;;1.33;;
58756;SDS011;44527;47.460;19.016;2022-09-01T10:06:43;3.17;;;1.40;;
58756;SDS011;44527;47.460;19.016;2022-09-01T10:09:50;4.70;;;1.30;;
58756;SDS011;44527;47.460;19.016;2022-09-01T10:12:54;3.90;;;1.25;;
58756;SDS011;44527;47.460;19.016;2022-09-01T10:15:58;7.47;;;1.35;;
58756;SDS011;44527;47.460;19.016;2022-09-01T10:19:10;4.40;;;1.25;;
58756;SDS011;44527;47.460;19.016;2022-09-01T10:22:17;2.35;;;1.02;;
58756;SDS011;44527;47.460;19.016;2022-09-01T10:25:23;2.47;;;1.40;;
58756;SDS011;44527;47.460;19.016;2022-09-01T10:28:30;2.35;;;1.25;;
58756;SDS011;44527;47.460;19.016;2022-09-01T10:31:34;5.22;;;1.15;;
58756;SDS011;44527;47.460;19.016;2022-09-01T10:34:38;2.95;;;1.52;;
58756;SDS011;44527;47.460;19.016;2022-09-01T10:37:43;5.50;;;1.20;;
58756;SDS011;44527;47.460;19.016;2022-09-01T10:40:48;2.20;;;0.90;;
58756;SDS011;44527;47.460;19.016;2022-09-01T10:44:09;2.55;;;0.90;;
58756;SDS011;44527;47.460;19.016;2022-09-01T10:47:24;2.28;;;0.90;;
58756;SDS011;44527;47.460;19.016;2022-09-01T10:50:31;2.62;;;1.00;;
58756;SDS011;44527;47.460;19.016;2022-09-01T10:53:38;3.12;;;0.80;;
58756;SDS011;44527;47.460;19.016;2022-09-01T10:56:48;3.92;;;1.20;;
58756;SDS011;44527;47.460;19.016;2022-09-01T10:59:54;7.12;;;1.17;;
58756;SDS011;44527;47.460;19.016;2022-09-01T11:03:38;1.10;;;0.65;;
58756;SDS011;44527;47.460;19.016;2022-09-01T11:07:02;1.85;;;0.73;;
58756;SDS011;44527;47.460;19.016;2022-09-01T11:13:46;1.17;;;0.70;;
58756;SDS011;44527;47.460;19.016;2022-09-01T11:17:10;2.47;;;0.65;;
58756;SDS011;44527;47.460;19.016;2022-09-01T11:20:37;1.12;;;0.80;;
58756;SDS011;44527;47.460;19.016;2022-09-01T11:23:41;6.62;;;0.88;;
58756;SDS011;44527;47.460;19.016;2022-09-01T11:26:46;4.15;;;0.80;;
58756;SDS011;44527;47.460;19.016;2022-09-01T11:29:56;2.90;;;1.00;;
58756;SDS011;44527;47.460;19.016;2022-09-01T11:33:10;9.13;;;0.90;;
58756;SDS011;44527;47.460;19.016;2022-09-01T11:39:57;2.47;;;0.70;;
58756;SDS011;44527;47.460;19.016;2022-09-01T11:43:10;1.73;;;0.70;;
58756;SDS011;44527;47.460;19.016;2022-09-01T11:46:21;2.08;;;0.88;;
58756;SDS011;44527;47.460;19.016;2022-09-01T11:49:34;5.18;;;1.00;;
58756;SDS011;44527;47.460;19.016;2022-09-01T11:52:40;4.40;;;1.00;;
58756;SDS011;44527;47.460;19.016;2022-09-01T11:55:49;1.40;;;0.80;;
58756;SDS011;44527;47.460;19.016;2022-09-01T11:58:54;12.93;;;1.17;;
58756;SDS011;44527;47.460;19.016;2022-09-01T12:01:56;4.90;;;1.00;;
58756;SDS011;44527;47.460;19.016;2022-09-01T12:05:01;3.45;;;0.80;;
58756;SDS011;44527;47.460;19.016;2022-09-01T12:08:11;2.55;;;0.80;;
58756;SDS011;44527;47.460;19.016;2022-09-01T12:11:20;3.45;;;0.73;;
58756;SDS011;44527;47.460;19.016;2022-09-01T12:14:26;4.50;;;1.00;;
58756;SDS011;44527;47.460;19.016;2022-09-01T12:17:52;8.35;;;0.85;;
58756;SDS011;44527;47.460;19.016;2022-09-01T12:20:56;4.05;;;0.90;;
58756;SDS011;44527;47.460;19.016;2022-09-01T12:24:13;3.50;;;0.95;;
58756;SDS011;44527;47.460;19.016;2022-09-01T12:27:23;1.98;;;0.70;;
58756;SDS011;44527;47.460;19.016;2022-09-01T12:30:26;3.87;;;0.90;;
58756;SDS011;44527;47.460;19.016;2022-09-01T12:33:28;2.58;;;0.70;;
58756;SDS011;44527;47.460;19.016;2022-09-01T12:36:33;1.83;;;0.80;;
58756;SDS011;44527;47.460;19.016;2022-09-01T12:39:40;2.10;;;0.90;;
58756;SDS011;44527;47.460;19.016;2022-09-01T12:42:50;1.90;;;0.60;;
58756;SDS011;44527;47.460;19.016;2022-09-01T12:45:53;3.40;;;0.70;;
58756;SDS011;44527;47.460;19.016;2022-09-01T12:49:14;4.93;;;0.60;;
58756;SDS011;44527;47.460;19.016;2022-09-01T12:55:33;3.80;;;0.80;;
58756;SDS011;44527;47.460;19.016;2022-09-01T13:02:40;5.22;;;0.98;;
58756;SDS011;44527;47.460;19.016;2022-09-01T13:05:45;4.10;;;1.00;;
58756;SDS011;44527;47.460;19.016;2022-09-01T13:12:08;3.10;;;0.60;;
58756;SDS011;44527;47.460;19.016;2022-09-01T13:15:12;2.80;;;0.60;;
58756;SDS011;44527;47.460;19.016;2022-09-01T13:18:16;3.10;;;0.88;;
58756;SDS011;44527;47.460;19.016;2022-09-01T13:21:20;3.72;;;0.90;;
58756;SDS011;44527;47.460;19.016;2022-09-01T13:24:22;2.00;;;0.70;;
58756;SDS011;44527;47.460;19.016;2022-09-01T13:27:31;2.10;;;0.80;;
58756;SDS011;44527;47.460;19.016;2022-09-01T13:30:33;2.28;;;1.00;;
58756;SDS011;44527;47.460;19.016;2022-09-01T13:33:37;3.53;;;0.70;;
58756;SDS011;44527;47.460;19.016;2022-09-01T13:36:59;6.18;;;0.75;;
58756;SDS011;44527;47.460;19.016;2022-09-01T13:40:03;1.65;;;0.60;;
58756;SDS011;44527;47.460;19.016;2022-09-01T13:43:11;2.65;;;1.00;;
58756;SDS011;44527;47.460;19.016;2022-09-01T13:46:18;6.07;;;0.95;;
58756;SDS011;44527;47.460;19.016;2022-09-01T13:49:20;1.62;;;0.57;;
58756;SDS011;44527;47.460;19.016;2022-09-01T13:52:45;5.90;;;0.90;;
58756;SDS011;44527;47.460;19.016;2022-09-01T13:55:56;1.23;;;0.77;;
58756;SDS011;44527;47.460;19.016;2022-09-01T13:59:04;2.10;;;0.62;;
58756;SDS011;44527;47.460;19.016;2022-09-01T14:02:07;1.40;;;0.60;;
58756;SDS011;44527;47.460;19.016;2022-09-01T14:05:09;1.83;;;0.60;;
58756;SDS011;44527;47.460;19.016;2022-09-01T14:08:12;1.90;;;0.60;;
58756;SDS011;44527;47.460;19.016;2022-09-01T14:11:18;1.10;;;0.60;;
58756;SDS011;44527;47.460;19.016;2022-09-01T14:14:21;4.70;;;0.57;;
58756;SDS011;44527;47.460;19.016;2022-09-01T14:17:24;2.50;;;0.80;;
58756;SDS011;44527;47.460;19.016;2022-09-01T14:20:28;3.83;;;0.93;;
58756;SDS011;44527;47.460;19.016;2022-09-01T14:23:38;2.45;;;1.00;;
58756;SDS011;44527;47.460;19.016;2022-09-01T14:26:40;1.62;;;0.60;;
58756;SDS011;44527;47.460;19.016;2022-09-01T14:29:47;2.50;;;0.88;;
58756;SDS011;44527;47.460;19.016;2022-09-01T14:32:55;3.83;;;1.00;;
58756;SDS011;44527;47.460;19.016;2022-09-01T14:36:00;1.65;;;0.75;;
58756;SDS011;44527;47.460;19.016;2022-09-01T14:39:04;3.72;;;0.75;;
58756;SDS011;44527;47.460;19.016;2022-09-01T14:42:06;5.05;;;1.00;;
58756;SDS011;44527;47.460;19.016;2022-09-01T14:45:12;2.30;;;0.70;;
58756;SDS011;44527;47.460;19.016;2022-09-01T14:48:17;1.62;;;0.60;;
58756;SDS011;44527;47.460;19.016;2022-09-01T14:51:26;4.37;;;0.80;;
58756;SDS011;44527;47.460;19.016;2022-09-01T14:54:49;4.13;;;0.70;;
58756;SDS011;44527;47.460;19.016;2022-09-01T14:57:52;3.22;;;0.88;;
58756;SDS011;44527;47.460;19.016;2022-09-01T15:00:56;3.92;;;0.60;;
58756;SDS011;44527;47.460;19.016;2022-09-01T15:04:19;3.20;;;0.65;;
58756;SDS011;44527;47.460;19.016;2022-09-01T15:07:23;6.10;;;0.60;;
58756;SDS011;44527;47.460;19.016;2022-09-01T15:10:25;10.68;;;0.98;;
58756;SDS011;44527;47.460;19.016;2022-09-01T15:13:28;3.47;;;0.80;;
58756;SDS011;44527;47.460;19.016;2022-09-01T15:16:30;3.95;;;0.77;;
58756;SDS011;44527;47.460;19.016;2022-09-01T15:19:36;1.60;;;0.60;;
58756;SDS011;44527;47.460;19.016;2022-09-01T15:22:38;2.30;;;0.88;;
58756;SDS011;44527;47.460;19.016;2022-09-01T15:25:42;1.45;;;0.65;;
58756;SDS011;44527;47.460;19.016;2022-09-01T15:28:45;2.22;;;0.80;;
58756;SDS011;44527;47.460;19.016;2022-09-01T15:31:49;1.50;;;0.50;;
58756;SDS011;44527;47.460;19.016;2022-09-01T15:34:51;2.53;;;0.60;;
58756;SDS011;44527;47.460;19.016;2022-09-01T15:37:53;8.05;;;0.80;;
58756;SDS011;44527;47.460;19.016;2022-09-01T15:40:56;1.35;;;0.50;;
58756;SDS011;44527;47.460;19.016;2022-09-01T15:44:01;0.98;;;0.65;;
58756;SDS011;44527;47.460;19.016;2022-09-01T15:47:06;1.75;;;0.75;;
58756;SDS011;44527;47.460;19.016;2022-09-01T15:50:10;1.52;;;0.88;;
58756;SDS011;44527;47.460;19.016;2022-09-01T15:53:22;3.33;;;0.70;;
58756;SDS011;44527;47.460;19.016;2022-09-01T15:56:25;1.48;;;0.82;;
58756;SDS011;44527;47.460;19.016;2022-09-01T15:59:28;1.62;;;0.80;;
58756;SDS011;44527;47.460;19.016;2022-09-01T16:02:30;3.08;;;0.93;;
58756;SDS011;44527;47.460;19.016;2022-09-01T16:05:34;1.62;;;0.68;;
58756;SDS011;44527;47.460;19.016;2022-09-01T16:08:40;6.32;;;0.75;;
58756;SDS011;44527;47.460;19.016;2022-09-01T16:11:43;1.40;;;0.70;;
58756;SDS011;44527;47.460;19.016;2022-09-01T16:14:45;5.75;;;0.70;;
58756;SDS011;44527;47.460;19.016;2022-09-01T16:24:41;1.00;;;0.60;;
58756;SDS011;44527;47.460;19.016;2022-09-01T16:27:46;1.55;;;0.90;;
58756;SDS011;44527;47.460;19.016;2022-09-01T16:30:49;4.85;;;0.82;;
58756;SDS011;44527;47.460;19.016;2022-09-01T16:33:54;6.30;;;0.70;;
58756;SDS011;44527;47.460;19.016;2022-09-01T16:37:00;8.18;;;1.83;;
58756;SDS011;44527;47.460;19.016;2022-09-01T16:50:39;1.70;;;0.73;;
58756;SDS011;44527;47.460;19.016;2022-09-01T17:00:22;1.08;;;0.60;;
58756;SDS011;44527;47.460;19.016;2022-09-01T17:13:43;2.08;;;1.00;;
58756;SDS011;44527;47.460;19.016;2022-09-01T17:16:48;1.95;;;0.70;;
58756;SDS011;44527;47.460;19.016;2022-09-01T17:19:55;1.98;;;0.90;;
58756;SDS011;44527;47.460;19.016;2022-09-01T17:22:58;2.78;;;0.95;;
58756;SDS011;44527;47.460;19.016;2022-09-01T17:26:14;2.53;;;1.20;;
58756;SDS011;44527;47.460;19.016;2022-09-01T17:29:25;4.85;;;1.08;;
58756;SDS011;44527;47.460;19.016;2022-09-01T17:39:40;2.03;;;1.00;;
58756;SDS011;44527;47.460;19.016;2022-09-01T17:46:32;2.50;;;0.88;;
58756;SDS011;44527;47.460;19.016;2022-09-01T17:49:54;2.67;;;1.30;;
58756;SDS011;44527;47.460;19.016;2022-09-01T17:56:26;2.90;;;1.10;;
58756;SDS011;44527;47.460;19.016;2022-09-01T18:03:12;1.87;;;0.85;;
58756;SDS011;44527;47.460;19.016;2022-09-01T18:06:22;1.98;;;1.00;;
58756;SDS011;44527;47.460;19.016;2022-09-01T18:09:33;6.22;;;1.20;;
58756;SDS011;44527;47.460;19.016;2022-09-01T18:12:44;4.68;;;1.02;;
58756;SDS011;44527;47.460;19.016;2022-09-01T18:15:53;2.12;;;1.10;;
58756;SDS011;44527;47.460;19.016;2022-09-01T18:19:02;2.45;;;1.30;;
58756;SDS011;44527;47.460;19.016;2022-09-01T18:22:13;2.12;;;1.00;;
58756;SDS011;44527;47.460;19.016;2022-09-01T18:25:20;4.43;;;1.50;;
58756;SDS011;44527;47.460;19.016;2022-09-01T18:28:24;5.22;;;1.20;;
58756;SDS011;44527;47.460;19.016;2022-09-01T18:31:32;3.83;;;1.25;;
58756;SDS011;44527;47.460;19.016;2022-09-01T18:48:22;8.50;;;2.05;;
58756;SDS011;44527;47.460;19.016;2022-09-01T19:01:53;5.40;;;1.98;;
58756;SDS011;44527;47.460;19.016;2022-09-01T19:04:58;7.85;;;1.98;;
58756;SDS011;44527;47.460;19.016;2022-09-01T19:11:31;6.07;;;1.83;;
58756;SDS011;44527;47.460;19.016;2022-09-01T19:14:48;9.45;;;2.00;;
58756;SDS011;44527;47.460;19.016;2022-09-01T19:18:10;7.12;;;1.98;;
58756;SDS011;44527;47.460;19.016;2022-09-01T19:21:19;7.45;;;1.45;;
58756;SDS011;44527;47.460;19.016;2022-09-01T19:24:37;5.60;;;1.60;;
58756;SDS011;44527;47.460;19.016;2022-09-01T19:28:06;5.32;;;1.73;;
58756;SDS011;44527;47.460;19.016;2022-09-01T19:37:45;8.00;;;2.22;;
58756;SDS011;44527;47.460;19.016;2022-09-01T19:40:51;7.75;;;1.85;;
58756;SDS011;44527;47.460;19.016;2022-09-01T19:44:21;7.53;;;1.85;;
58756;SDS011;44527;47.460;19.016;2022-09-01T19:57:01;8.38;;;2.22;;
58756;SDS011;44527;47.460;19.016;2022-09-01T20:03:48;4.82;;;1.80;;
58756;SDS011;44527;47.460;19.016;2022-09-01T20:06:56;5.20;;;1.67;;
58756;SDS011;44527;47.460;19.016;2022-09-01T20:17:00;2.97;;;1.50;;
58756;SDS011;44527;47.460;19.016;2022-09-01T20:20:10;10.75;;;2.00;;
58756;SDS011;44527;47.460;19.016;2022-09-01T20:23:23;5.37;;;1.83;;
58756;SDS011;44527;47.460;19.016;2022-09-01T20:26:38;5.93;;;1.80;;
58756;SDS011;44527;47.460;19.016;2022-09-01T20:29:57;6.93;;;1.77;;
58756;SDS011;44527;47.460;19.016;2022-09-01T20:43:07;6.97;;;1.60;;
58756;SDS011;44527;47.460;19.016;2022-09-01T20:46:12;5.12;;;1.60;;
58756;SDS011;44527;47.460;19.016;2022-09-01T20:55:46;3.87;;;1.70;;
58756;SDS011;44527;47.460;19.016;2022-09-01T21:02:22;9.98;;;1.42;;
58756;SDS011;44527;47.460;19.016;2022-09-01T21:06:12;2.40;;;1.30;;
58756;SDS011;44527;47.460;19.016;2022-09-01T21:13:09;4.95;;;1.50;;
58756;SDS011;44527;47.460;19.016;2022-09-01T21:16:47;6.22;;;1.12;;
58756;SDS011;44527;47.460;19.016;2022-09-01T21:23:31;1.50;;;0.77;;
58756;SDS011;44527;47.460;19.016;2022-09-01T21:26:34;4.60;;;1.20;;